Time;durP1;ratioP1;P1;durP2;ratioP2;P2;SDS_P1;SDS_P2;PMS_P1;PMS_P2;Temp;Humidity;BMP_temperature;BMP_pressure;BME280_temperature;BME280_humidity;BME280_pressure;Samples;Min_cycle;Max_cycle;Signal;HPM_P1;HPM_P2
2022/02/05 00:00:26;;;;;;;12.15;3.58;;;;;;;;;;4956114;29;20103;-81
2022/02/05 00:03:23;;;;;;;11.68;3.30;;;;;;;;;;4963272;28;20039;-81
2022/02/05 00:06:03;;;;;;;8.55;3.47;;;;;;;;;;4964677;28;20490;-82
2022/02/05 00:41:50;;;;;;;7.32;3.58;;;;;;;;;;4969559;29;20050;-83
2022/02/05 00:44:21;;;;;;;10.98;3.30;;;;;;;;;;4978949;28;20035;-81
2022/02/05 00:49:58;;;;;;;6.15;2.30;;;;;;;;;;4967852;29;20030;-82
2022/02/05 00:52:28;;;;;;;10.15;2.97;;;;;;;;;;4962131;29;20028;-81
2022/02/05 00:55:04;;;;;;;7.00;2.97;;;;;;;;;;4969186;29;20491;-80
2022/02/05 00:57:45;;;;;;;7.85;3.42;;;;;;;;;;4969183;28;20043;-82
2022/02/05 01:00:18;;;;;;;8.63;3.50;;;;;;;;;;4969005;29;20027;-81
2022/02/05 01:02:44;;;;;;;10.20;3.33;;;;;;;;;;4968738;29;20039;-82
2022/02/05 01:05:13;;;;;;;10.43;3.60;;;;;;;;;;4950885;29;20031;-80
2022/02/05 01:07:39;;;;;;;10.48;3.13;;;;;;;;;;4965389;28;20071;-81
2022/02/05 01:10:11;;;;;;;10.65;3.80;;;;;;;;;;4970230;28;20036;-81
2022/02/05 01:12:41;;;;;;;10.20;3.40;;;;;;;;;;4953354;29;20047;-81
2022/02/05 01:15:27;;;;;;;8.43;3.70;;;;;;;;;;4973837;28;20050;-83
2022/02/05 01:18:00;;;;;;;6.88;2.88;;;;;;;;;;4975948;28;20007;-85
2022/02/05 01:23:06;;;;;;;8.15;3.03;;;;;;;;;;4975608;28;20459;-81
2022/02/05 01:25:40;;;;;;;7.32;2.90;;;;;;;;;;4969565;28;20042;-83
2022/02/05 01:28:28;;;;;;;11.05;2.92;;;;;;;;;;4965343;29;20044;-82
2022/02/05 01:31:13;;;;;;;9.98;3.67;;;;;;;;;;4966270;28;20523;-83
2022/02/05 01:33:58;;;;;;;6.53;2.70;;;;;;;;;;4952100;29;20119;-81
2022/02/05 01:56:51;;;;;;;8.00;2.22;;;;;;;;;;4970027;28;20427;-81
2022/02/05 01:59:34;;;;;;;6.72;2.50;;;;;;;;;;4966319;28;20046;-81
2022/02/05 02:05:32;;;;;;;8.38;2.42;;;;;;;;;;4965926;29;20038;-83
2022/02/05 02:25:28;;;;;;;8.55;3.13;;;;;;;;;;4912509;29;20028;-83
2022/02/05 02:28:10;;;;;;;5.65;2.15;;;;;;;;;;4912146;29;20040;-81
2022/02/05 02:33:48;;;;;;;6.15;2.35;;;;;;;;;;4970131;28;20061;-83
2022/02/05 02:36:37;;;;;;;5.20;2.33;;;;;;;;;;4965293;29;20053;-82
2022/02/05 02:39:12;;;;;;;4.55;2.20;;;;;;;;;;4957229;29;20038;-81
2022/02/05 02:42:09;;;;;;;4.25;1.83;;;;;;;;;;4962598;28;20097;-80
2022/02/05 02:44:47;;;;;;;13.13;2.50;;;;;;;;;;4963572;29;20059;-82
2022/02/05 02:50:33;;;;;;;5.90;2.30;;;;;;;;;;4956908;29;20081;-81
2022/02/05 02:58:33;;;;;;;4.55;2.00;;;;;;;;;;4972320;28;20046;-80
2022/02/05 03:01:00;;;;;;;7.18;2.20;;;;;;;;;;4963373;28;20032;-83
2022/02/05 03:03:27;;;;;;;10.52;2.60;;;;;;;;;;4962305;29;20565;-82
2022/02/05 03:06:00;;;;;;;9.20;3.22;;;;;;;;;;4956215;29;20023;-83
2022/02/05 03:08:28;;;;;;;7.30;2.28;;;;;;;;;;4950882;29;20403;-81
2022/02/05 03:11:19;;;;;;;7.57;2.17;;;3.20;99.90;;;;;;4951394;29;20027;-82
2022/02/05 03:13:48;;;;;;;4.50;3.00;;;;;;;;;;4967406;28;20027;-82
2022/02/05 03:19:37;;;;;;;6.90;2.75;;;;;;;;;;4954631;28;20055;-81
2022/02/05 03:25:14;;;;;;;8.20;2.53;;;;;;;;;;4909227;29;20060;-81
2022/02/05 03:27:43;;;;;;;6.43;2.50;;;;;;;;;;4961720;28;20032;-83
2022/02/05 03:30:31;;;;;;;5.15;2.20;;;;;;;;;;4966475;28;20069;-79
2022/02/05 03:33:20;;;;;;;6.78;2.30;;;;;;;;;;4961690;29;20506;-82
2022/02/05 03:35:49;;;;;;;6.10;2.45;;;;;;;;;;4961439;28;20075;-82
2022/02/05 03:44:26;;;;;;;9.40;2.47;;;;;;;;;;4975855;28;20050;-82
2022/02/05 03:46:54;;;;;;;4.78;2.10;;;;;;;;;;4976333;28;20035;-81
2022/02/05 03:49:49;;;;;;;10.05;3.15;;;;;;;;;;4967133;28;20036;-81
2022/02/05 03:52:33;;;;;;;5.80;2.30;;;;;;;;;;4967773;28;20517;-81
2022/02/05 03:55:07;;;;;;;5.63;2.38;;;;;;;;;;4959304;29;20585;-81
2022/02/05 03:57:54;;;;;;;8.75;2.85;;;;;;;;;;4967040;28;20479;-81
2022/02/05 04:00:24;;;;;;;9.82;2.22;;;;;;;;;;4948564;29;20039;-81
2022/02/05 04:02:53;;;;;;;11.35;2.67;;;;;;;;;;4963423;29;20027;-81
2022/02/05 04:05:19;;;;;;;6.10;2.58;;;;;;;;;;4960774;29;20035;-82
2022/02/05 04:07:50;;;;;;;9.63;2.40;;;;;;;;;;4951642;28;20027;-81
2022/02/05 04:10:23;;;;;;;8.23;3.15;;;;;;;;;;4977263;28;20049;-82
2022/02/05 04:19:10;;;;;;;9.88;2.60;;;;;;;;;;4971231;28;20034;-82
2022/02/05 04:21:42;;;;;;;5.18;2.15;;;;;;;;;;4968869;28;20035;-81
2022/02/05 04:24:09;;;;;;;10.02;2.85;;;;;;;;;;4964421;29;20145;-81
2022/02/05 04:26:41;;;;;;;8.95;2.42;;;;;;;;;;4957969;28;20471;-81
2022/02/05 04:29:08;;;;;;;9.15;2.33;;;;;;;;;;4950941;29;20418;-83
2022/02/05 04:31:34;;;;;;;6.60;2.28;;;;;;;;;;4945994;29;20094;-81
2022/02/05 04:34:04;;;;;;;5.75;1.83;;;;;;;;;;4952863;29;20031;-83
2022/02/05 04:36:37;;;;;;;5.00;2.10;;;;;;;;;;4960199;28;20050;-82
2022/02/05 04:39:23;;;;;;;6.07;2.15;;;;;;;;;;4979522;28;20031;-81
2022/02/05 04:41:56;;;;;;;6.82;2.47;;;;;;;;;;4972703;28;20027;-82
2022/02/05 04:47:39;;;;;;;8.40;1.90;;;;;;;;;;4973146;28;20062;-81
2022/02/05 05:04:45;;;;;;;6.65;1.98;;;;;;;;;;4971759;29;19914;-81
2022/02/05 05:15:20;;;;;;;9.85;2.10;;;;;;;;;;4976770;28;20421;-81
2022/02/05 05:19:46;;;;;;;6.65;2.20;;;;;;;;;;4976368;28;20030;-82
2022/02/05 05:22:07;;;;;;;9.32;2.10;;;;;;;;;;4930063;28;20054;-82
2022/02/05 05:24:33;;;;;;;7.50;2.40;;;;;;;;;;4986006;28;20165;-83
2022/02/05 05:30:55;;;;;;;6.00;2.42;;;2.50;99.90;;;;;;4968405;28;20029;-81
2022/02/05 05:33:26;;;;;;;4.65;2.28;;;;;;;;;;4973077;28;20027;-81
2022/02/05 05:35:52;;;;;;;12.85;3.03;;;;;;;;;;4975655;28;20027;-82
2022/02/05 05:38:18;;;;;;;6.65;2.70;;;;;;;;;;4977482;28;20037;-81
2022/02/05 05:40:46;;;;;;;8.35;2.80;;;;;;;;;;4976363;28;20027;-82
2022/02/05 13:18:41;;;;;;;14.73;4.47;;;;;;;;;;4993330;23;20106;-79
2022/02/05 13:26:59;;;;;;;14.23;4.07;;;7.10;99.90;;;;;;4964431;28;20519;-75
2022/02/05 13:29:40;;;;;;;15.10;4.07;;;;;;;;;;4939585;28;20177;-78
2022/02/05 13:34:50;;;;;;;11.05;4.25;;;;;;;;;;4941309;28;20047;-74
2022/02/05 13:37:22;;;;;;;9.90;4.10;;;7.10;99.90;;;;;;4944242;28;20024;-75
2022/02/05 13:40:01;;;;;;;8.65;3.60;;;7.10;99.90;;;;;;4958128;28;20518;-74
2022/02/05 13:42:32;;;;;;;9.88;3.53;;;7.20;99.90;;;;;;4956859;28;20031;-76
2022/02/05 13:45:01;;;;;;;12.57;4.22;;;7.10;99.90;;;;;;4943609;28;20090;-78
2022/02/05 13:47:30;;;;;;;9.52;3.50;;;7.20;99.90;;;;;;4941822;29;20023;-77
2022/02/05 13:50:07;;;;;;;10.02;4.15;;;6.90;99.90;;;;;;4939907;28;20534;-75
2022/02/05 13:52:44;;;;;;;8.82;3.38;;;7.30;99.90;;;;;;4946512;28;20074;-76
2022/02/05 13:55:14;;;;;;;10.82;2.65;;;7.30;99.90;;;;;;4946007;28;20070;-79
2022/02/05 13:58:01;;;;;;;12.57;3.20;;;7.30;99.90;;;;;;4939628;28;20084;-78
2022/02/05 14:00:40;;;;;;;8.57;3.17;;;7.30;99.90;;;;;;4941781;28;20119;-77
2022/02/05 14:03:08;;;;;;;9.90;2.67;;;7.20;99.90;;;;;;4961811;28;20055;-75
2022/02/05 14:05:34;;;;;;;8.23;3.70;;;;;;;;;;4961055;28;20039;-78
2022/02/05 14:08:00;;;;;;;11.18;3.17;;;;;;;;;;4954332;28;20046;-77
2022/02/05 14:10:26;;;;;;;8.50;3.47;;;;;;;;;;4946042;28;20035;-76
2022/02/05 14:12:54;;;;;;;14.55;3.72;;;7.00;99.90;;;;;;4946153;28;20031;-78
2022/02/05 14:15:22;;;;;;;17.13;3.35;;;7.10;99.90;;;;;;4954692;28;20039;-76
2022/02/05 14:17:48;;;;;;;14.90;3.85;;;;;;;;;;4944973;28;20051;-78
2022/02/05 14:20:16;;;;;;;10.23;3.80;;;6.80;99.90;;;;;;4954253;28;20082;-78
2022/02/05 14:22:48;;;;;;;10.60;3.50;;;6.90;99.90;;;;;;4944572;28;20027;-77
2022/02/05 14:25:21;;;;;;;14.88;3.70;;;6.90;99.90;;;;;;4941345;28;20055;-75
2022/02/05 14:28:08;;;;;;;8.60;3.22;;;7.00;99.90;;;;;;4948830;28;20128;-76
2022/02/05 14:30:35;;;;;;;8.13;2.70;;;;;;;;;;4945283;28;20114;-78
2022/02/05 14:33:05;;;;;;;9.43;3.38;;;;;;;;;;4935640;28;20451;-78
2022/02/05 14:36:21;;;;;;;9.98;2.47;;;;;;;;;;4949404;28;20031;-76
2022/02/05 14:41:05;;;;;;;9.75;3.72;;;;;;;;;;4946323;28;20062;-77
2022/02/05 14:43:31;;;;;;;7.95;3.22;;;;;;;;;;4958051;28;20514;-76
2022/02/05 14:45:57;;;;;;;13.05;3.35;;;;;;;;;;4944177;28;20038;-78
2022/02/05 14:48:23;;;;;;;5.25;2.35;;;7.10;99.90;;;;;;4943273;28;20035;-75
2022/02/05 14:50:50;;;;;;;11.80;2.30;;;;;;;;;;4938701;28;20029;-76
2022/02/05 14:53:16;;;;;;;7.88;2.28;;;;;;;;;;4942145;28;20082;-76
2022/02/05 14:55:41;;;;;;;10.35;2.40;;;7.20;99.90;;;;;;4947414;28;20032;-77
2022/02/05 14:58:07;;;;;;;9.77;2.88;;;;;;;;;;4950909;28;20116;-76
2022/02/05 15:00:33;;;;;;;9.43;2.53;;;;;;;;;;4964735;28;20027;-76
2022/02/05 15:02:59;;;;;;;8.50;2.88;;;;;;;;;;4943724;28;20026;-77
2022/02/05 15:05:25;;;;;;;10.27;2.58;;;;;;;;;;4943806;28;20027;-78
2022/02/05 15:07:52;;;;;;;6.93;2.65;;;;;;;;;;4960904;28;20090;-76
2022/02/05 15:10:18;;;;;;;6.53;2.10;;;7.40;99.90;;;;;;4944161;28;20503;-76
2022/02/05 15:12:45;;;;;;;11.45;2.40;;;;;;;;;;4961351;28;20020;-76
2022/02/05 15:15:30;;;;;;;7.47;2.22;;;7.40;99.90;;;;;;4939810;28;20027;-77
2022/02/05 15:17:55;;;;;;;5.07;1.48;;;7.30;99.90;;;;;;4946784;29;20055;-76
2022/02/05 15:20:22;;;;;;;5.57;1.80;;;;;;;;;;4938286;28;20443;-78
2022/02/05 15:22:50;;;;;;;6.80;2.10;;;7.30;99.90;;;;;;4961932;28;20054;-76
2022/02/05 15:25:16;;;;;;;6.75;2.10;;;7.20;99.90;;;;;;4947016;28;20031;-76
2022/02/05 15:27:42;;;;;;;5.30;2.03;;;7.10;99.90;;;;;;4945650;28;20035;-75
2022/02/05 15:30:10;;;;;;;9.55;2.47;;;7.20;99.90;;;;;;4948519;28;20082;-76
2022/02/05 15:32:36;;;;;;;7.50;1.75;;;;;;;;;;4946332;28;20023;-77
2022/02/05 15:35:02;;;;;;;8.70;2.40;;;7.20;99.90;;;;;;4961350;28;20735;-74
2022/02/05 15:37:28;;;;;;;7.15;1.80;;;;;;;;;;4942148;28;20031;-77
2022/02/05 15:40:15;;;;;;;6.65;1.60;;;;;;;;;;4944290;28;20137;-76
2022/02/05 15:45:24;;;;;;;9.98;2.90;;;;;;;;;;4946743;28;20524;-76
2022/02/05 15:47:50;;;;;;;7.25;2.50;;;;;;;;;;4948063;28;20027;-77
2022/02/05 15:50:16;;;;;;;6.05;1.98;;;;;;;;;;4958937;28;20506;-74
2022/02/05 15:52:42;;;;;;;6.38;2.15;;;;;;;;;;4942324;28;20066;-74
2022/02/05 15:55:10;;;;;;;9.35;1.80;;;7.00;99.90;;;;;;4970715;28;20023;-73
2022/02/05 16:00:27;;;;;;;8.25;2.35;;;;;;;;;;4945667;28;20107;-75
2022/02/05 16:02:55;;;;;;;8.85;2.30;;;7.00;99.90;;;;;;4945404;28;20490;-75
2022/02/05 16:05:20;;;;;;;8.13;2.00;;;6.90;99.90;;;;;;4945067;28;20137;-75
2022/02/05 16:07:46;;;;;;;8.93;1.92;;;;;;;;;;4950538;28;20112;-77
2022/02/05 16:10:12;;;;;;;6.38;1.65;;;;;;;;;;4944932;28;20035;-78
2022/02/05 16:12:40;;;;;;;6.70;1.70;;;7.00;99.90;;;;;;4946767;28;20507;-77
2022/02/05 16:15:06;;;;;;;8.60;2.78;;;6.90;99.90;;;;;;4946737;28;20127;-77
2022/02/05 16:17:32;;;;;;;7.13;2.42;;;;;;;;;;4950347;28;20569;-77
2022/02/05 16:19:58;;;;;;;6.47;2.10;;;;;;;;;;4949721;28;20066;-76
2022/02/05 16:22:24;;;;;;;4.97;1.80;;;;;;;;;;4945827;28;20138;-75
2022/02/05 16:24:49;;;;;;;5.55;2.00;;;6.70;99.90;;;;;;4951608;28;20016;-75
2022/02/05 16:27:15;;;;;;;8.93;2.17;;;;;;;;;;4948500;28;20094;-74
2022/02/05 16:29:43;;;;;;;7.13;2.22;;;6.80;99.90;;;;;;4945322;28;20038;-75
2022/02/05 16:32:10;;;;;;;10.27;2.47;;;6.70;99.90;;;;;;4939958;28;20036;-76
2022/02/05 16:34:43;;;;;;;11.68;2.42;;;6.60;99.90;;;;;;4963810;28;20085;-76
2022/02/05 16:37:09;;;;;;;7.47;2.33;;;;;;;;;;4945250;28;20043;-76
2022/02/05 16:39:40;;;;;;;14.40;5.75;;;;;;;;;;4957363;28;20403;-78
2022/02/05 16:42:06;;;;;;;8.00;2.30;;;;;;;;;;4948437;28;20055;-77
2022/02/05 16:44:32;;;;;;;9.23;2.55;;;;;;;;;;4947007;28;20496;-74
2022/02/05 16:46:59;;;;;;;9.10;2.20;;;;;;;;;;4945814;28;20027;-75
2022/02/05 16:49:26;;;;;;;8.48;3.47;;;;;;;;;;4944798;28;20039;-75
2022/02/05 16:51:53;;;;;;;16.85;6.55;;;6.40;99.90;;;;;;4944948;28;20027;-75
2022/02/05 16:54:20;;;;;;;7.60;3.20;;;6.30;99.90;;;;;;4944794;28;20109;-77
2022/02/05 16:56:46;;;;;;;7.28;2.90;;;;;;;;;;4951190;28;20418;-78
2022/02/05 16:59:12;;;;;;;19.00;8.75;;;;;;;;;;4943107;29;20019;-78
2022/02/05 17:01:41;;;;;;;21.42;7.85;;;;;;;;;;4961303;28;20027;-77
2022/02/05 17:04:06;;;;;;;11.85;2.88;;;;;;;;;;4947529;28;20060;-77
2022/02/05 17:06:34;;;;;;;17.67;6.07;;;;;;;;;;4959298;28;20027;-75
2022/02/05 17:09:00;;;;;;;15.40;8.52;;;5.60;99.90;;;;;;4949877;28;20026;-76
2022/02/05 17:11:26;;;;;;;14.05;6.18;;;;;;;;;;4947304;28;20027;-76
2022/02/05 17:13:54;;;;;;;5.82;3.38;;;5.90;99.90;;;;;;4946120;28;20041;-77
2022/02/05 17:16:21;;;;;;;9.50;3.08;;;;;;;;;;4943642;28;20023;-77
2022/02/05 17:18:47;;;;;;;9.80;3.03;;;;;;;;;;4946822;28;20027;-75
2022/02/05 17:21:13;;;;;;;13.25;4.60;;;6.30;99.90;;;;;;4949411;28;20110;-78
2022/02/05 17:23:41;;;;;;;9.98;3.40;;;;;;;;;;4947118;28;20130;-77
2022/02/05 17:26:09;;;;;;;8.80;3.85;;;5.70;99.90;;;;;;4948533;28;20038;-76
2022/02/05 17:28:35;;;;;;;10.02;3.58;;;;;;;;;;4947609;28;20035;-79
2022/02/05 17:31:01;;;;;;;6.05;2.60;;;;;;;;;;4960338;28;20053;-78
2022/02/05 17:33:27;;;;;;;7.38;2.88;;;;;;;;;;4942149;28;20035;-79
2022/02/05 17:36:01;;;;;;;12.00;3.72;;;;;;;;;;4943114;28;20490;-77
2022/02/05 17:38:29;;;;;;;10.95;3.28;;;5.60;99.90;;;;;;4946421;28;20026;-78
2022/02/05 17:40:58;;;;;;;11.02;3.30;;;;;;;;;;4946875;28;20459;-78
2022/02/05 17:43:26;;;;;;;8.25;2.85;;;5.60;99.90;;;;;;4949579;28;20024;-77
2022/02/05 17:45:53;;;;;;;9.30;2.53;;;;;;;;;;4951635;29;20023;-78
2022/02/05 17:48:19;;;;;;;6.55;2.20;;;;;;;;;;4952689;28;20049;-78
2022/02/05 17:50:44;;;;;;;5.63;2.47;;;5.60;99.90;;;;;;4953350;28;20090;-78
2022/02/05 17:53:10;;;;;;;8.52;2.63;;;;;;;;;;4949403;28;20114;-78
2022/02/05 17:55:36;;;;;;;6.72;2.35;;;;;;;;;;4949004;28;20032;-77
2022/02/05 17:58:03;;;;;;;10.75;4.07;;;5.50;99.90;;;;;;4955419;28;20506;-77
2022/02/05 18:00:32;;;;;;;8.68;2.50;;;5.40;99.90;;;;;;4957836;28;20118;-78
2022/02/05 18:03:05;;;;;;;8.80;3.45;;;5.40;99.90;;;;;;4960929;28;20419;-77
2022/02/05 18:10:56;;;;;;;11.07;2.97;;;5.40;99.90;;;;;;4947795;29;20038;-78
2022/02/05 18:15:51;;;;;;;10.13;2.40;;;;;;;;;;4940121;29;20066;-77
2022/02/05 18:18:17;;;;;;;8.20;2.50;;;;;;;;;;4950048;29;20031;-77
2022/02/05 18:20:43;;;;;;;10.77;2.25;;;;;;;;;;4969875;28;20458;-78
2022/02/05 18:23:11;;;;;;;9.95;2.78;;;5.30;99.90;;;;;;4946216;29;20039;-78
2022/02/05 18:25:37;;;;;;;6.72;2.30;;;;;;;;;;4951368;28;20024;-78
2022/02/05 18:28:03;;;;;;;9.60;2.75;;;;;;;;;;4964732;28;20596;-77
2022/02/05 18:30:29;;;;;;;7.50;2.30;;;;;;;;;;4972974;28;20031;-77
2022/02/05 18:32:55;;;;;;;8.18;3.10;;;;;;;;;;4949563;28;20024;-77
2022/02/05 18:35:24;;;;;;;8.93;3.53;;;;;;;;;;4944655;28;20058;-77
2022/02/05 18:37:51;;;;;;;7.28;2.58;;;;;;;;;;4944347;28;20090;-77
2022/02/05 18:40:21;;;;;;;11.93;3.47;;;;;;;;;;4953034;28;20118;-78
2022/02/05 18:42:48;;;;;;;7.17;2.93;;;;;;;;;;4954324;28;20031;-78
2022/02/05 18:45:14;;;;;;;7.60;2.70;;;;;;;;;;4970983;28;20271;-78
2022/02/05 18:47:42;;;;;;;10.30;3.10;;;;;;;;;;4951373;29;20035;-78
2022/02/05 18:50:10;;;;;;;7.72;2.22;;;;;;;;;;4946295;28;20182;-77
2022/02/05 18:52:36;;;;;;;8.45;2.90;;;;;;;;;;4952237;28;20059;-78
2022/02/05 18:55:02;;;;;;;6.63;2.50;;;;;;;;;;4948310;28;20043;-79
2022/02/05 18:57:28;;;;;;;8.38;2.20;;;;;;;;;;4952105;28;20031;-79
2022/02/05 18:59:55;;;;;;;7.75;2.33;;;;;;;;;;4957483;28;20041;-78
2022/02/05 19:02:35;;;;;;;10.75;2.28;;;;;;;;;;4965042;28;20046;-77
2022/02/05 19:16:00;;;;;;;;;;;5.50;99.90;;;;;;4963571;28;20117;-80
2022/02/05 19:18:26;;;;;;;7.13;1.92;;;;;;;;;;4958266;28;19911;-79
2022/02/05 19:20:52;;;;;;;8.82;2.35;;;;;;;;;;4979512;28;20047;-80
2022/02/05 19:23:21;;;;;;;7.10;2.60;;;;;;;;;;4968357;28;20065;-79
2022/02/05 19:25:47;;;;;;;9.35;3.90;;;;;;;;;;4961632;28;20053;-79
2022/02/05 19:28:13;;;;;;;6.63;2.83;;;;;;;;;;4962700;28;20027;-79
2022/02/05 19:30:39;;;;;;;7.40;2.60;;;;;;;;;;4965682;28;20028;-79
2022/02/05 19:33:06;;;;;;;4.40;2.22;;;;;;;;;;4964659;28;20028;-78
2022/02/05 19:35:34;;;;;;;8.93;3.35;;;;;;;;;;4956859;28;20038;-81
2022/02/05 19:38:00;;;;;;;6.90;2.17;;;;;;;;;;4964574;28;20118;-80
2022/02/05 19:40:26;;;;;;;7.38;2.05;;;;;;;;;;4960021;28;20118;-78
2022/02/05 19:42:52;;;;;;;8.55;2.38;;;;;;;;;;4970900;28;20415;-78
2022/02/05 19:45:25;;;;;;;6.93;2.28;;;;;;;;;;4968807;28;20055;-78
2022/02/05 19:48:00;;;;;;;8.57;2.30;;;;;;;;;;4970097;28;20035;-78
2022/02/05 19:50:26;;;;;;;5.38;2.03;;;;;;;;;;4959177;28;20031;-78
2022/02/05 19:52:52;;;;;;;7.03;2.20;;;;;;;;;;4961332;28;20034;-79
2022/02/05 19:55:18;;;;;;;5.55;2.40;;;;;;;;;;4965659;28;20173;-80
2022/02/05 19:57:45;;;;;;;11.30;2.35;;;5.10;99.90;;;;;;4968584;28;20037;-79
2022/02/05 20:00:11;;;;;;;10.05;2.67;;;;;;;;;;4963530;28;20039;-80
2022/02/05 20:02:40;;;;;;;5.00;2.38;;;;;;;;;;4965758;28;20110;-80
2022/02/05 20:05:13;;;;;;;6.53;2.08;;;;;;;;;;4977662;28;20035;-81
2022/02/05 20:10:09;;;;;;;9.05;2.22;;;;;;;;;;4973970;28;20035;-81
2022/02/05 20:12:35;;;;;;;11.25;2.90;;;;;;;;;;4972544;28;20036;-82
2022/02/05 20:15:01;;;;;;;6.47;2.30;;;;;;;;;;4968685;28;20039;-81
2022/02/05 20:17:27;;;;;;;13.70;3.15;;;;;;;;;;4969301;28;20066;-81
2022/02/05 20:19:54;;;;;;;4.75;1.90;;;;;;;;;;4959930;28;20035;-80
2022/02/05 20:22:21;;;;;;;13.05;2.22;;;;;;;;;;4963313;28;20479;-80
2022/02/05 20:24:49;;;;;;;7.93;2.53;;;;;;;;;;4966883;28;20593;-81
2022/02/05 20:27:16;;;;;;;9.43;2.28;;;;;;;;;;4962294;28;20035;-81
2022/02/05 20:29:43;;;;;;;8.65;2.83;;;;;;;;;;4959088;28;20047;-79
2022/02/05 20:32:09;;;;;;;7.93;2.58;;;;;;;;;;4962451;28;20039;-79
2022/02/05 20:34:36;;;;;;;7.00;2.50;;;;;;;;;;4964344;28;20035;-79
2022/02/05 20:37:02;;;;;;;6.80;2.42;;;;;;;;;;4969048;28;20031;-79
2022/02/05 20:39:28;;;;;;;12.70;2.65;;;;;;;;;;4968171;28;20035;-80
2022/02/05 20:41:56;;;;;;;8.18;2.38;;;;;;;;;;4961646;28;20035;-79
2022/02/05 20:44:22;;;;;;;9.32;2.50;;;;;;;;;;4957844;28;20054;-79
2022/02/05 20:46:48;;;;;;;7.75;2.45;;;;;;;;;;4957836;28;20031;-78
2022/02/05 20:49:15;;;;;;;12.13;2.28;;;;;;;;;;4964375;28;20035;-79
2022/02/05 20:51:42;;;;;;;13.63;3.85;;;;;;;;;;4959271;28;20657;-79
2022/02/05 20:54:30;;;;;;;5.07;2.10;;;;;;;;;;4964355;28;20043;-79
2022/02/05 20:56:56;;;;;;;11.85;3.35;;;;;;;;;;4965331;28;20031;-82
2022/02/05 20:59:22;;;;;;;7.05;3.20;;;;;;;;;;4957601;28;20403;-80
2022/02/05 21:01:48;;;;;;;15.70;5.95;;;;;;;;;;4950885;28;20024;-79
2022/02/05 21:04:17;;;;;;;5.80;2.42;;;;;;;;;;4965220;28;20035;-79
2022/02/05 21:06:44;;;;;;;29.40;11.45;;;;;;;;;;4966854;28;20035;-78
2022/02/05 21:09:14;;;;;;;15.90;5.85;;;;;;;;;;4959002;28;20055;-77
2022/02/05 21:11:40;;;;;;;10.40;2.45;;;;;;;;;;4957638;28;20066;-78
2022/02/05 21:14:08;;;;;;;9.38;2.38;;;;;;;;;;4955021;28;20039;-79
2022/02/05 21:16:34;;;;;;;7.05;2.40;;;;;;;;;;4970658;28;20031;-78
2022/02/05 21:19:00;;;;;;;12.43;2.72;;;;;;;;;;4954944;28;20034;-79
2022/02/05 21:21:31;;;;;;;5.95;1.88;;;;;;;;;;4969707;28;20023;-80
2022/02/05 21:24:01;;;;;;;9.07;2.50;;;5.20;99.90;;;;;;4951644;28;20039;-79
2022/02/05 21:26:29;;;;;;;6.43;2.10;;;;;;;;;;4950121;28;20043;-78
2022/02/05 21:28:57;;;;;;;4.75;1.88;;;;;;;;;;4956681;28;20046;-79
2022/02/05 21:31:34;;;;;;;4.20;1.75;;;;;;;;;;4951383;28;20039;-79
2022/02/05 21:36:44;;;;;;;7.75;1.92;;;;;;;;;;4960353;28;20039;-79
2022/02/05 21:39:10;;;;;;;8.27;1.80;;;;;;;;;;4966022;28;20035;-78
2022/02/05 21:41:36;;;;;;;8.18;2.60;;;;;;;;;;4948621;28;20263;-78
2022/02/05 21:44:02;;;;;;;7.30;2.92;;;;;;;;;;4952440;28;20036;-78
2022/02/05 21:46:28;;;;;;;6.28;1.70;;;;;;;;;;4955466;28;20035;-78
2022/02/05 21:48:54;;;;;;;10.00;2.42;;;;;;;;;;4970558;28;20081;-79
2022/02/05 21:51:28;;;;;;;8.95;2.10;;;;;;;;;;4972744;28;20087;-79
2022/02/05 21:53:55;;;;;;;5.68;2.10;;;;;;;;;;4954257;28;20034;-78
2022/02/05 21:56:30;;;;;;;6.57;2.25;;;;;;;;;;4967930;28;20067;-78
2022/02/05 21:59:03;;;;;;;9.70;2.88;;;;;;;;;;4965783;28;20037;-79
2022/02/05 22:01:30;;;;;;;11.25;2.10;;;;;;;;;;4965848;28;20034;-80
2022/02/05 22:03:56;;;;;;;5.68;2.35;;;;;;;;;;4964206;28;20021;-77
2022/02/05 22:06:22;;;;;;;4.80;1.85;;;;;;;;;;4961743;28;20027;-79
2022/02/05 22:08:48;;;;;;;9.60;2.58;;;;;;;;;;4954799;28;20031;-79
2022/02/05 22:11:14;;;;;;;7.65;2.30;;;;;;;;;;4945784;28;20032;-78
2022/02/05 22:13:40;;;;;;;13.27;3.65;;;;;;;;;;4956650;28;20052;-78
2022/02/05 22:16:06;;;;;;;9.65;2.60;;;;;;;;;;4970952;28;20331;-78
2022/02/05 22:18:33;;;;;;;12.38;2.45;;;;;;;;;;4957224;28;20095;-80
2022/02/05 22:20:59;;;;;;;7.38;2.42;;;;;;;;;;4957264;28;20046;-79
2022/02/05 22:23:27;;;;;;;6.55;2.22;;;;;;;;;;4951246;28;20031;-78
2022/02/05 22:25:53;;;;;;;7.25;2.28;;;;;;;;;;4968487;28;20023;-79
2022/02/05 22:28:19;;;;;;;6.32;2.50;;;;;;;;;;4975395;28;20035;-79
2022/02/05 22:30:45;;;;;;;9.85;2.70;;;;;;;;;;4947572;28;20051;-78
2022/02/05 22:33:11;;;;;;;9.18;2.40;;;;;;;;;;4949194;28;20046;-80
2022/02/05 22:35:37;;;;;;;6.78;2.30;;;;;;;;;;4953112;28;20073;-78
2022/02/05 22:38:03;;;;;;;8.48;2.22;;;;;;;;;;4954107;28;20031;-79
2022/02/05 22:40:30;;;;;;;8.95;2.60;;;;;;;;;;4952806;28;20027;-78
2022/02/05 22:42:56;;;;;;;7.15;2.28;;;;;;;;;;4967856;28;20051;-78
2022/02/05 22:45:25;;;;;;;8.95;2.50;;;;;;;;;;4954764;28;20035;-80
2022/02/05 22:47:52;;;;;;;8.13;2.88;;;;;;;;;;4952089;28;20659;-79
2022/02/05 22:50:18;;;;;;;7.80;2.30;;;;;;;;;;4942035;28;20043;-79
2022/02/05 22:52:44;;;;;;;11.45;2.88;;;;;;;;;;4947047;28;20473;-79
2022/02/05 22:55:10;;;;;;;9.20;2.15;;;;;;;;;;4951805;28;20062;-79
2022/02/05 22:57:39;;;;;;;7.90;2.22;;;;;;;;;;4971522;28;20062;-79
2022/02/05 23:00:14;;;;;;;20.17;4.65;;;4.90;99.90;;;;;;4947533;28;20032;-79
2022/02/05 23:02:40;;;;;;;9.50;2.45;;;;;;;;;;4951258;28;20041;-80
2022/02/05 23:05:07;;;;;;;7.10;2.22;;;;;;;;;;4949791;28;20081;-79
2022/02/05 23:07:33;;;;;;;9.48;2.38;;;;;;;;;;4943391;28;20036;-79
2022/02/05 23:10:12;;;;;;;8.75;2.60;;;;;;;;;;4953297;28;20058;-79
2022/02/05 23:13:05;;;;;;;8.85;2.47;;;;;;;;;;4948323;28;20051;-78
2022/02/05 23:43:05;;;;;;;9.43;2.40;;;;;;;;;;4941779;29;20091;-79
2022/02/05 23:45:37;;;;;;;9.05;2.60;;;;;;;;;;4957135;28;20099;-78
2022/02/05 23:48:06;;;;;;;10.90;1.80;;;;;;;;;;4954551;28;20035;-79
2022/02/05 23:50:33;;;;;;;7.65;2.33;;;;;;;;;;4949287;28;20039;-79
2022/02/05 23:52:59;;;;;;;12.93;2.17;;;;;;;;;;4949850;28;20031;-79
2022/02/05 23:55:25;;;;;;;5.85;1.90;;;;;;;;;;4951708;28;20458;-79
2022/02/05 23:57:52;;;;;;;4.88;1.90;;;;;;;;;;4953787;28;20046;-79
